Time;durP1;ratioP1;P1;durP2;ratioP2;P2;SDS_P1;SDS_P2;PMS_P1;PMS_P2;Temp;Humidity;BMP_temperature;BMP_pressure;BME280_temperature;BME280_humidity;BME280_pressure;Samples;Min_cycle;Max_cycle;Signal;HPM_P1;HPM_P2
2021/11/21 00:03:44;;;;;;;18.00;16.70;;;;;;;7.08;73.79;99860.41;10494614;28;22007;-72
2021/11/21 00:08:47;;;;;;;18.40;16.98;;;;;;;7.08;74.05;99846.44;10523768;23;20036;-69
2021/11/21 00:13:50;;;;;;;19.80;18.05;;;;;;;6.74;74.92;99839.31;10493510;28;20067;-70
2021/11/21 00:18:52;;;;;;;19.13;17.63;;;;;;;6.51;75.68;99831.91;10510293;28;20405;-69
2021/11/21 00:23:54;;;;;;;19.65;18.00;;;;;;;6.20;77.10;99843.78;10509853;28;20055;-70
2021/11/21 00:28:56;;;;;;;21.98;20.15;;;;;;;6.14;77.36;99836.03;10504721;28;20100;-70
2021/11/21 00:33:58;;;;;;;21.13;19.13;;;;;;;5.95;77.68;99841.56;10501574;28;20037;-69
2021/11/21 00:39:00;;;;;;;20.38;18.67;;;;;;;5.87;78.24;99837.31;10503572;28;20051;-71
2021/11/21 00:44:02;;;;;;;22.92;20.80;;;;;;;5.85;78.27;99841.72;10503014;28;20581;-70
2021/11/21 00:49:07;;;;;;;21.25;19.50;;;;;;;5.82;78.65;99837.41;10502644;28;20094;-70
2021/11/21 00:59:24;;;;;;;21.15;19.45;;;;;;;5.75;79.47;99825.31;10503117;28;20040;-70
2021/11/21 01:04:25;;;;;;;21.38;19.58;;;;;;;5.83;79.15;99813.03;10502045;28;20044;-70
2021/11/21 01:09:27;;;;;;;20.70;18.92;;;;;;;5.88;79.50;99807.72;10501826;28;20140;-70
2021/11/21 01:14:29;;;;;;;21.48;19.55;;;;;;;5.94;78.40;99803.31;10467039;28;20044;-69
2021/11/21 01:19:31;;;;;;;22.25;20.00;;;;;;;5.69;80.13;99795.00;10501276;28;20119;-69
2021/11/21 01:24:33;;;;;;;21.45;19.38;;;;;;;5.61;80.68;99788.16;10502300;28;20116;-70
2021/11/21 01:29:35;;;;;;;21.52;19.58;;;;;;;5.73;80.15;99777.56;10501597;28;20089;-71
2021/11/21 01:34:37;;;;;;;25.15;23.10;;;;;;;5.64;80.58;99775.09;10501262;28;20059;-70
2021/11/21 01:39:39;;;;;;;23.98;21.80;;;;;;;5.65;80.31;99776.81;10500889;28;20047;-70
2021/11/21 01:44:41;;;;;;;23.77;21.73;;;;;;;5.59;80.50;99782.13;10501495;28;20037;-70
2021/11/21 01:49:43;;;;;;;24.05;21.88;;;;;;;5.74;79.65;99772.31;10500172;28;20052;-70
2021/11/21 01:54:45;;;;;;;22.90;20.67;;;;;;;5.83;78.83;99751.28;10499738;28;20486;-70
2021/11/21 01:59:47;;;;;;;26.13;22.05;;;;;;;5.64;79.63;99756.84;10499441;28;20077;-70
2021/11/21 02:04:49;;;;;;;23.52;21.02;;;;;;;5.65;79.77;99753.34;10499366;28;20058;-69
2021/11/21 02:09:51;;;;;;;23.30;20.85;;;;;;;5.70;79.54;99760.19;10500053;28;20040;-70
2021/11/21 02:14:53;;;;;;;21.65;19.85;;;;;;;5.63;80.05;99755.13;10499144;28;20111;-70
2021/11/21 02:19:57;;;;;;;20.98;19.20;;;;;;;5.70;79.42;99751.50;10498918;28;20040;-70
2021/11/21 02:24:59;;;;;;;22.27;20.13;;;;;;;5.75;78.95;99737.50;10480932;28;20040;-71
2021/11/21 02:30:05;;;;;;;20.98;18.92;;;;;;;5.77;79.10;99730.53;10499116;28;20051;-70
2021/11/21 02:35:07;;;;;;;20.00;18.20;;;;;;;6.00;77.82;99722.31;10481383;28;20079;-70
2021/11/21 02:40:10;;;;;;;20.27;18.65;;;;;;;5.98;77.60;99728.47;10499750;28;20417;-69
2021/11/21 02:45:16;;;;;;;18.48;16.92;;;;;;;5.90;77.85;99710.31;10499079;28;20068;-69
2021/11/21 02:50:23;;;;;;;18.63;16.98;;;;;;;5.88;77.82;99709.47;10480593;28;20049;-71
2021/11/21 02:55:28;;;;;;;17.35;15.65;;;;;;;5.91;77.48;99705.94;10481797;28;20040;-70
2021/11/21 03:00:30;;;;;;;17.52;15.73;;;;;;;5.91;78.00;99704.19;10498975;28;20115;-70
2021/11/21 03:05:34;;;;;;;17.42;15.95;;;;;;;6.12;76.50;99697.75;10497928;28;20063;-70
2021/11/21 03:10:36;;;;;;;17.48;16.08;;;;;;;6.16;76.67;99693.34;10498791;28;20136;-69
2021/11/21 03:15:38;;;;;;;18.90;17.35;;;;;;;6.03;77.03;99680.53;10498170;28;20045;-70
2021/11/21 03:20:40;;;;;;;19.05;17.45;;;;;;;6.00;77.45;99675.38;10480843;28;20036;-70
2021/11/21 03:25:42;;;;;;;20.42;18.60;;;;;;;6.20;76.44;99674.13;10497901;28;20041;-70
2021/11/21 03:30:44;;;;;;;20.55;18.95;;;;;;;6.25;76.19;99667.94;10497993;28;20119;-70
2021/11/21 03:35:46;;;;;;;20.60;18.95;;;;;;;6.32;76.07;99655.59;10480112;28;20114;-69
2021/11/21 03:40:48;;;;;;;21.60;19.98;;;;;;;6.32;76.20;99656.44;10497830;28;20044;-69
2021/11/21 03:45:50;;;;;;;20.83;19.00;;;;;;;6.55;75.25;99639.44;10497404;28;20123;-70
2021/11/21 03:50:52;;;;;;;21.55;19.70;;;;;;;6.54;75.32;99630.75;10497517;28;20462;-70
2021/11/21 03:55:53;;;;;;;21.95;20.10;;;;;;;6.53;75.73;99631.66;10497020;28;20488;-70
2021/11/21 04:00:55;;;;;;;21.25;19.60;;;;;;;6.48;75.68;99628.28;10479444;28;20072;-70
2021/11/21 04:05:57;;;;;;;20.50;18.90;;;;;;;6.50;76.14;99621.25;10502417;28;20040;-70
2021/11/21 04:10:59;;;;;;;19.98;18.27;;;;;;;6.47;75.67;99610.06;10504267;28;20086;-70
2021/11/21 04:16:01;;;;;;;21.88;19.85;;;;;;;6.35;76.87;99607.69;10504048;28;20043;-70
2021/11/21 04:21:03;;;;;;;21.90;20.00;;;;;;;6.47;76.00;99604.84;10504071;28;20105;-70
2021/11/21 04:26:04;;;;;;;22.83;20.80;;;;;;;6.42;76.56;99606.66;10504095;28;20398;-70
2021/11/21 04:31:06;;;;;;;23.42;21.42;;;;;;;6.60;74.97;99592.34;10503677;28;20405;-71
2021/11/21 04:36:08;;;;;;;25.30;23.00;;;;;;;6.71;74.41;99588.59;10503610;28;20043;-69
2021/11/21 04:41:11;;;;;;;24.73;22.35;;;;;;;6.74;74.28;99587.69;10503190;28;20076;-70
2021/11/21 04:46:13;;;;;;;23.58;21.45;;;;;;;6.72;74.15;99582.47;10502894;28;20111;-70
2021/11/21 04:51:14;;;;;;;21.95;20.27;;;;;;;6.77;73.50;99577.13;10484771;28;20048;-70
2021/11/21 04:56:16;;;;;;;25.45;23.10;;;;;;;6.66;73.95;99571.31;10502239;28;20087;-70
2021/11/21 05:01:18;;;;;;;23.45;21.30;;;;;;;6.73;73.66;99573.75;10502185;28;20132;-71
2021/11/21 05:06:21;;;;;;;22.98;21.00;;;;;;;6.75;73.28;99568.50;10502764;28;20044;-71
2021/11/21 05:11:23;;;;;;;24.88;22.48;;;;;;;6.66;73.76;99563.47;10501804;28;20051;-71
2021/11/21 05:16:25;;;;;;;22.90;20.75;;;;;;;6.61;73.59;99554.91;10501164;28;20064;-70
2021/11/21 05:21:28;;;;;;;23.52;21.35;;;;;;;6.54;73.95;99552.41;10501706;28;20048;-71
2021/11/21 05:26:30;;;;;;;23.45;21.52;;;;;;;6.55;73.90;99548.03;10501928;28;20036;-69
2021/11/21 05:31:32;;;;;;;25.63;23.08;;;;;;;6.50;74.02;99544.69;10501409;28;20569;-71
2021/11/21 05:36:35;;;;;;;23.98;21.80;;;;;;;6.52;74.15;99541.16;10500683;28;20040;-70
2021/11/21 05:41:36;;;;;;;24.52;22.45;;;;;;;6.59;73.69;99547.09;10501230;28;20120;-70
2021/11/21 05:46:38;;;;;;;25.20;22.98;;;;;;;6.40;74.33;99533.59;10482330;28;20048;-71
2021/11/21 05:51:40;;;;;;;23.73;21.70;;;;;;;6.45;74.42;99538.72;10499917;28;20123;-71
2021/11/21 05:56:42;;;;;;;24.20;21.83;;;;;;;6.50;74.39;99532.50;10499382;28;20055;-71
2021/11/21 06:01:44;;;;;;;23.00;20.90;;;;;;;6.46;74.36;99536.09;10499651;28;20040;-71
2021/11/21 06:06:46;;;;;;;23.30;21.30;;;;;;;6.46;74.28;99536.09;10499346;28;20044;-71
2021/11/21 06:11:48;;;;;;;23.27;21.38;;;;;;;6.51;73.90;99531.63;10495282;23;20114;-72
2021/11/21 06:16:50;;;;;;;22.45;20.33;;;;;;;6.50;73.61;99527.25;10469733;28;20044;-73
2021/11/21 06:21:52;;;;;;;22.05;20.05;;;;;;;6.53;74.06;99521.13;10485774;28;20044;-73
2021/11/21 06:26:53;;;;;;;22.00;20.00;;;;;;;6.41;74.38;99519.66;10484758;28;20041;-74
2021/11/21 06:31:55;;;;;;;22.50;20.45;;;;;;;6.60;73.60;99521.81;10503316;28;20144;-73
2021/11/21 06:36:58;;;;;;;22.30;20.60;;;;;;;6.45;74.05;99530.88;10486987;28;20043;-73
2021/11/21 06:42:01;;;;;;;22.90;21.00;;;;;;;6.54;73.70;99530.66;10485889;28;20444;-72
2021/11/21 06:47:03;;;;;;;23.02;21.23;;;;;;;6.55;73.73;99530.66;10484664;28;20040;-72
2021/11/21 06:52:05;;;;;;;21.45;19.60;;;;;;;6.47;74.12;99521.28;10502140;28;20041;-72
2021/11/21 06:57:07;;;;;;;24.02;22.08;;;;;;;6.45;74.00;99523.06;10484073;28;20143;-73
2021/11/21 07:02:09;;;;;;;21.25;19.38;;;;;;;6.49;73.91;99519.47;10483866;28;20382;-72
2021/11/21 07:07:12;;;;;;;23.95;21.83;;;;;;;6.52;73.60;99519.41;10502418;28;20504;-73
2021/11/21 07:12:14;;;;;;;22.52;20.73;;;;;;;6.55;73.43;99519.31;10483012;28;20541;-73
2021/11/21 07:17:35;;;;;;;22.70;20.75;;;;;;;6.56;73.38;99510.63;10502514;28;20111;-72
2021/11/21 07:22:40;;;;;;;24.65;22.38;;;;;;;6.47;73.73;99516.91;10483431;28;20498;-74
2021/11/21 07:27:42;;;;;;;22.70;20.52;;;;;;;6.57;73.56;99515.78;10500905;28;20036;-72
2021/11/21 07:32:45;;;;;;;22.83;20.83;;;;;;;6.55;73.49;99509.75;10501015;28;20051;-71
2021/11/21 07:37:47;;;;;;;23.23;21.08;;;;;;;6.61;73.46;99513.13;10502795;28;20040;-72
2021/11/21 07:42:49;;;;;;;23.48;21.20;;;;;;;6.65;73.08;99504.31;10508789;28;20101;-72
2021/11/21 07:47:51;;;;;;;22.25;20.35;;;;;;;6.69;72.92;99503.34;10508284;28;20064;-72
2021/11/21 07:52:53;;;;;;;23.08;20.75;;;;;;;6.68;73.28;99504.22;10507932;28;20068;-71
2021/11/21 07:57:54;;;;;;;23.75;21.40;;;;;;;6.56;73.36;99495.81;10491169;28;20060;-72
2021/11/21 08:02:57;;;;;;;23.67;21.45;;;;;;;6.57;73.51;99502.75;10492353;28;20433;-72
2021/11/21 08:07:59;;;;;;;22.30;20.25;;;;;;;6.59;73.52;99494.84;10491355;28;20070;-73
2021/11/21 08:13:01;;;;;;;23.65;21.42;;;;;;;6.66;72.91;99496.44;10512465;28;20041;-73
2021/11/21 08:18:03;;;;;;;24.33;22.05;;;;;;;6.63;73.47;99488.66;10489852;28;20048;-73
2021/11/21 08:23:05;;;;;;;23.05;21.05;;;;;;;6.68;72.82;99491.16;10489911;28;20122;-71
2021/11/21 08:28:07;;;;;;;24.48;20.13;;;;;;;6.68;72.91;99478.97;10490209;28;20114;-73
2021/11/21 08:33:10;;;;;;;24.13;22.02;;;;;;;6.69;73.09;99490.28;10479338;28;20054;-73
2021/11/21 08:38:14;;;;;;;22.67;20.55;;;;;;;6.69;73.09;99485.91;10493861;28;20067;-72
2021/11/21 08:43:17;;;;;;;23.67;21.48;;;;;;;6.72;72.80;99487.59;10494773;28;20421;-72
2021/11/21 08:48:23;;;;;;;24.77;22.35;;;;;;;6.67;72.71;99489.44;10510773;28;20153;-73
2021/11/21 08:53:25;;;;;;;23.98;21.65;;;;;;;6.70;72.86;99484.16;10510276;28;20132;-73
2021/11/21 08:58:26;;;;;;;25.25;21.65;;;;;;;6.72;72.74;99480.59;10492671;28;20040;-74
2021/11/21 09:03:30;;;;;;;23.77;21.38;;;;;;;6.83;72.12;99482.97;10510364;28;20052;-73
2021/11/21 09:08:33;;;;;;;24.23;21.83;;;;;;;6.85;72.12;99475.94;10498601;28;20041;-72
2021/11/21 09:13:36;;;;;;;24.08;21.60;;;;;;;6.80;72.52;99473.44;10518382;28;20060;-72
2021/11/21 09:18:45;;;;;;;24.52;22.33;;;;;;;6.84;72.42;99466.38;10518153;28;20049;-72
2021/11/21 09:23:46;;;;;;;23.83;21.55;;;;;;;6.82;72.49;99465.56;10505278;28;20064;-72
2021/11/21 09:28:48;;;;;;;24.25;21.77;;;;;;;6.86;72.43;99466.34;10507190;28;20044;-72
2021/11/21 09:33:50;;;;;;;23.38;21.20;;;;;;;6.92;72.25;99458.34;10486954;28;20072;-72
2021/11/21 09:38:53;;;;;;;25.00;22.40;;;;;;;6.94;71.94;99465.25;10488000;28;20072;-72
2021/11/21 09:43:55;;;;;;;24.15;21.90;;;;;;;6.95;71.70;99453.91;10485805;28;20410;-71
2021/11/21 09:48:57;;;;;;;24.67;22.27;;;;;;;7.00;72.00;99451.19;10507496;28;20076;-72
2021/11/21 09:53:59;;;;;;;24.13;21.88;;;;;;;6.95;71.77;99447.81;10504104;28;20097;-71
2021/11/21 09:59:01;;;;;;;24.75;22.30;;;;;;;6.96;72.33;99449.53;10502679;28;20554;-71
2021/11/21 10:04:04;;;;;;;24.98;22.52;;;;;;;7.03;71.47;99438.00;10502806;28;20067;-72
2021/11/21 10:09:08;;;;;;;25.13;22.60;;;;;;;7.00;71.56;99436.34;10502161;28;20494;-71
2021/11/21 10:14:10;;;;;;;24.83;22.50;;;;;;;7.03;71.43;99432.78;10485180;28;20528;-73
2021/11/21 10:19:12;;;;;;;24.70;22.05;;;;;;;7.09;71.15;99430.03;10485090;28;20045;-72
2021/11/21 10:24:29;;;;;;;24.35;21.90;;;;;;;7.14;71.34;99435.13;10488675;28;20409;-71
2021/11/21 10:29:36;;;;;;;22.87;20.67;;;;;;;7.17;70.92;99433.28;10504696;28;20087;-72
2021/11/21 10:34:46;;;;;;;;;;;;;;;7.05;71.58;99433.63;10504640;28;20055;-71
2021/11/21 10:39:48;;;;;;;22.33;19.95;;;;;;;7.12;71.09;99429.91;10487642;28;19984;-72
2021/11/21 10:44:51;;;;;;;22.48;20.23;;;;;;;7.20;71.11;99427.09;10503128;28;20349;-73
2021/11/21 10:49:53;;;;;;;20.45;18.65;;;;;;;7.17;71.15;99427.19;10485938;28;20064;-73
2021/11/21 10:54:57;;;;;;;21.27;18.92;;;;;;;7.12;71.39;99416.84;10502153;28;20409;-72
2021/11/21 11:00:04;;;;;;;20.63;18.55;;;;;;;7.21;70.77;99413.97;10502281;28;20482;-72
2021/11/21 11:05:18;;;;;;;19.63;17.95;;;;;;;7.21;70.80;99411.38;10501731;28;20040;-72
2021/11/21 11:10:25;;;;;;;18.60;17.02;;;;;;;7.28;70.52;99412.91;10481731;28;20044;-72
2021/11/21 11:15:32;;;;;;;19.63;17.83;;;;;;;7.32;70.50;99411.94;10483284;28;20062;-72
2021/11/21 11:20:41;;;;;;;19.77;18.08;;;;;;;7.21;70.90;99415.75;10483117;28;20501;-72
2021/11/21 11:25:44;;;;;;;19.83;18.23;;;;;;;7.19;71.08;99410.56;10481698;28;20132;-72
2021/11/21 11:30:47;;;;;;;17.98;16.38;;;;;;;7.02;71.33;99403.19;10503782;28;20044;-72
2021/11/21 11:35:56;;;;;;;19.33;17.48;;;;;;;6.85;72.10;99405.38;10502052;28;20044;-73
2021/11/21 11:41:08;;;;;;;19.23;17.63;;;;;;;6.89;72.33;99407.03;10499366;28;20047;-73
2021/11/21 11:46:18;;;;;;;18.75;16.92;;;;;;;6.87;72.22;99413.22;10499237;28;20032;-73
2021/11/21 11:51:30;;;;;;;20.80;18.77;;;;;;;6.81;72.63;99404.59;10464892;28;20045;-73
2021/11/21 11:57:09;;;;;;;18.73;17.02;;;;;;;6.83;72.48;99401.97;10465101;28;20044;-73
2021/11/21 12:02:30;;;;;;;19.85;18.02;;;;;;;6.77;72.84;99386.44;10478299;28;20461;-74
2021/11/21 12:07:41;;;;;;;19.42;17.65;;;;;;;6.80;73.20;99395.06;10480945;28;20041;-72
2021/11/21 12:12:58;;;;;;;21.10;19.15;;;;;;;6.90;72.75;99389.59;10440528;23;20044;-73
2021/11/21 12:18:02;;;;;;;21.00;19.20;;;;;;;7.01;72.83;99390.16;10455187;28;20482;-72
2021/11/21 12:23:06;;;;;;;18.27;16.57;;;;;;;6.99;72.06;99386.72;10454523;28;20418;-72
2021/11/21 12:28:09;;;;;;;20.25;18.23;;;;;;;6.96;72.28;99390.28;10443594;28;20509;-72
2021/11/21 12:33:27;;;;;;;18.75;17.05;;;;;;;6.95;72.64;99396.44;10444998;28;20379;-73
2021/11/21 12:38:33;;;;;;;20.10;15.73;;;;;;;6.92;72.86;99393.88;10443538;28;20132;-73
2021/11/21 12:43:35;;;;;;;17.98;16.38;;;;;;;7.02;72.16;99384.88;10462442;28;20048;-73
2021/11/21 12:48:36;;;;;;;18.38;16.63;;;;;;;7.04;72.65;99390.09;10464509;28;20056;-73
2021/11/21 12:53:38;;;;;;;18.52;16.52;;;;;;;6.99;73.32;99389.34;10463063;28;20483;-72
2021/11/21 12:58:44;;;;;;;18.05;16.52;;;;;;;7.07;72.85;99398.69;10462444;28;20037;-73
2021/11/21 13:03:46;;;;;;;17.50;15.98;;;;;;;7.14;72.09;99399.38;10461310;28;20136;-74
2021/11/21 13:08:49;;;;;;;19.67;17.67;;;;;;;7.14;72.70;99393.31;10442650;28;20102;-73
2021/11/21 13:13:54;;;;;;;17.33;15.82;;;;;;;7.21;71.78;99384.38;10461459;28;20051;-72
2021/11/21 13:18:57;;;;;;;17.50;15.98;;;;;;;7.25;72.36;99386.00;10460262;28;20051;-73
2021/11/21 13:24:10;;;;;;;19.83;18.05;;;;;;;7.26;72.55;99377.25;10442830;28;20502;-73
2021/11/21 13:29:11;;;;;;;16.67;15.27;;;;;;;7.42;71.25;99383.75;10461793;28;20095;-73
2021/11/21 13:34:22;;;;;;;16.05;14.50;;;;;;;7.50;71.38;99392.25;10460226;28;20119;-73
2021/11/21 13:39:30;;;;;;;15.93;14.63;;;;;;;7.41;71.63;99383.81;10460111;28;20116;-73
2021/11/21 13:44:38;;;;;;;17.33;15.73;;;;;;;7.34;71.89;99390.97;10460067;28;20116;-73
2021/11/21 13:49:43;;;;;;;16.50;15.02;;;;;;;7.18;72.32;99392.31;10459637;28;20397;-73
2021/11/21 13:54:47;;;;;;;16.70;15.07;;;;;;;7.33;71.78;99407.56;10459420;28;20047;-73
2021/11/21 13:59:51;;;;;;;16.20;14.90;;;;;;;7.33;71.69;99399.72;10440743;28;20044;-74
2021/11/21 14:04:57;;;;;;;15.73;14.40;;;;;;;7.25;72.63;99401.69;10458414;28;20067;-72
2021/11/21 14:10:06;;;;;;;16.77;15.18;;;;;;;7.23;72.90;99416.56;10440428;28;20041;-73
2021/11/21 14:15:20;;;;;;;20.60;18.70;;;;;;;7.29;73.07;99417.25;10458376;28;20041;-73
2021/11/21 14:20:28;;;;;;;15.55;14.10;;;;;;;7.42;73.16;99416.91;10458745;28;20039;-74
2021/11/21 14:25:40;;;;;;;17.10;15.50;;;;;;;7.21;73.79;99431.41;10458995;28;20048;-74
2021/11/21 14:30:54;;;;;;;16.83;15.43;;;;;;;7.16;74.70;99428.09;10439322;28;20131;-73
2021/11/21 14:35:59;;;;;;;17.42;15.90;;;;;;;7.26;74.43;99421.69;10456648;28;20047;-72
2021/11/21 14:41:12;;;;;;;17.27;15.73;;;;;;;6.99;77.29;99426.78;10456519;28;20049;-72
2021/11/21 14:46:15;;;;;;;18.75;15.88;;;;;;;7.03;79.37;99422.31;10455709;28;20051;-72
2021/11/21 14:51:19;;;;;;;18.63;17.02;;;;;;;7.04;79.37;99426.69;10456097;28;20049;-73
2021/11/21 14:56:22;;;;;;;20.95;19.23;;;;;;;6.98;79.13;99422.44;10436929;28;20135;-73
2021/11/21 15:01:32;;;;;;;21.05;18.35;;;;;;;6.76;79.80;99429.16;10455598;28;20481;-73
2021/11/21 15:06:36;;;;;;;20.00;18.25;;;;;;;6.63;80.74;99432.97;10437794;28;20041;-73
2021/11/21 15:11:41;;;;;;;18.98;17.33;;;;;;;6.85;79.94;99436.75;10455635;28;20081;-72
2021/11/21 15:16:43;;;;;;;18.88;17.08;;;;;;;6.73;80.03;99439.66;10437794;28;20554;-73
2021/11/21 15:21:46;;;;;;;18.92;17.25;;;;;;;6.49;81.48;99439.41;10455413;28;20037;-73
2021/11/21 15:26:49;;;;;;;17.77;16.27;;;;;;;6.61;81.11;99442.63;10454083;28;20041;-73
2021/11/21 15:31:52;;;;;;;17.58;16.00;;;;;;;6.43;82.07;99447.38;10437460;28;20045;-73
2021/11/21 15:36:54;;;;;;;19.23;17.63;;;;;;;6.51;81.80;99452.44;10438290;28;20574;-73
2021/11/21 15:41:56;;;;;;;18.77;17.15;;;;;;;6.48;81.36;99445.53;10455979;28;20037;-74
2021/11/21 15:46:58;;;;;;;19.30;17.67;;;;;;;6.61;80.76;99447.84;10455283;28;20037;-74
2021/11/21 15:52:00;;;;;;;18.00;16.50;;;;;;;6.73;79.69;99445.78;10455934;28;20072;-72
2021/11/21 15:57:02;;;;;;;16.00;14.60;;;;;;;6.68;79.72;99447.63;10438374;28;20388;-73
2021/11/21 16:02:04;;;;;;;17.63;16.13;;;;;;;7.03;78.13;99454.53;10444716;28;20049;-73
2021/11/21 16:07:07;;;;;;;17.55;15.70;;;;;;;6.78;79.15;99456.09;10428907;28;20041;-73
2021/11/21 16:12:09;;;;;;;17.17;15.88;;;;;;;6.76;79.65;99456.13;10444787;28;20518;-73
2021/11/21 16:17:13;;;;;;;17.55;16.05;;;;;;;6.69;80.34;99456.34;10462783;28;20037;-73
2021/11/21 16:22:15;;;;;;;18.73;17.02;;;;;;;6.83;79.71;99456.84;10462342;28;20068;-73
2021/11/21 16:27:17;;;;;;;18.55;16.83;;;;;;;6.74;80.60;99460.53;10444134;28;20045;-74
2021/11/21 16:32:19;;;;;;;20.05;17.08;;;;;;;6.63;81.82;99462.53;10462179;28;20041;-73
2021/11/21 16:37:21;;;;;;;20.60;18.30;;;;;;;6.35;83.79;99464.97;10461764;28;20098;-73
2021/11/21 16:42:22;;;;;;;20.05;17.85;;;;;;;6.57;83.94;99471.41;10461728;28;20087;-73
2021/11/21 16:47:24;;;;;;;19.88;18.13;;;;;;;6.55;83.96;99474.94;10461503;28;20568;-74
2021/11/21 16:52:26;;;;;;;19.85;18.05;;;;;;;6.57;84.58;99471.41;10461048;28;20117;-73
2021/11/21 16:57:28;;;;;;;18.95;17.15;;;;;;;6.52;85.08;99477.63;10460767;28;20064;-73
2021/11/21 17:02:30;;;;;;;19.10;17.38;;;;;;;6.58;84.64;99482.69;10460498;28;20129;-72
2021/11/21 17:07:32;;;;;;;18.98;16.77;;;;;;;6.66;84.56;99487.75;10460106;28;20037;-73
2021/11/21 17:12:34;;;;;;;19.42;17.55;;;;;;;6.47;85.23;99497.78;10441630;28;20570;-73
2021/11/21 17:17:37;;;;;;;19.67;17.83;;;;;;;6.49;85.73;99512.50;10459523;28;20045;-73
2021/11/21 17:22:40;;;;;;;19.20;16.85;;;;;;;6.59;84.99;99510.53;10441794;28;20076;-73
2021/11/21 17:27:41;;;;;;;18.85;16.98;;;;;;;6.65;85.02;99517.38;10459434;28;20041;-74
2021/11/21 17:32:48;;;;;;;17.80;16.30;;;;;;;6.50;85.53;99516.81;10459505;28;20465;-73
2021/11/21 17:37:50;;;;;;;17.10;15.47;;;;;;;6.64;85.09;99523.47;10459729;28;20437;-74
2021/11/21 17:42:51;;;;;;;17.40;15.70;;;;;;;6.48;86.49;99525.59;10458982;28;20041;-74
2021/11/21 17:47:53;;;;;;;17.30;15.48;;;;;;;6.42;86.94;99524.00;10457826;28;20044;-73
2021/11/21 17:52:56;;;;;;;17.83;16.33;;;;;;;6.55;86.83;99532.38;10440770;28;20052;-73
2021/11/21 17:57:57;;;;;;;16.83;15.43;;;;;;;6.52;86.94;99540.31;10458948;28;20037;-73
2021/11/21 18:02:59;;;;;;;16.63;15.23;;;;;;;6.57;86.89;99544.53;10458513;28;20502;-72
2021/11/21 18:08:01;;;;;;;15.95;14.48;;;;;;;6.62;86.51;99551.38;10454925;28;20044;-71
2021/11/21 18:13:03;;;;;;;16.50;14.80;;;;;;;6.58;86.65;99550.59;10456327;28;20359;-72
2021/11/21 18:18:04;;;;;;;16.88;15.38;;;;;;;6.67;86.49;99559.97;10456864;28;20041;-72
2021/11/21 18:23:07;;;;;;;17.58;15.98;;;;;;;6.60;86.78;99561.00;10457212;28;20045;-71
2021/11/21 18:28:10;;;;;;;16.65;15.25;;;;;;;6.56;87.31;99563.69;10457541;28;20064;-71
2021/11/21 18:33:12;;;;;;;16.30;14.68;;;;;;;6.73;86.29;99560.69;10457531;28;20051;-71
2021/11/21 18:38:13;;;;;;;16.92;15.38;;;;;;;6.61;86.93;99566.19;10457292;28;20051;-73
2021/11/21 18:43:15;;;;;;;16.15;14.45;;;;;;;6.72;86.63;99569.41;10440547;28;20049;-73
2021/11/21 18:48:17;;;;;;;14.70;13.40;;;;;;;6.79;86.40;99570.13;10458357;28;20033;-72
2021/11/21 18:53:20;;;;;;;14.43;13.32;;;;;;;6.72;86.33;99573.78;10457336;28;20410;-72
2021/11/21 18:58:23;;;;;;;15.18;13.88;;;;;;;6.79;86.31;99585.81;10457879;28;20044;-72
2021/11/21 19:03:25;;;;;;;14.43;13.07;;;;;;;6.86;86.26;99583.91;10457762;28;20052;-72
2021/11/21 19:08:27;;;;;;;13.63;12.43;;;;;;;6.72;86.92;99581.63;10457049;28;20067;-72
2021/11/21 19:13:29;;;;;;;15.13;13.77;;;;;;;6.86;87.64;99589.13;10457151;28;20413;-72
2021/11/21 19:18:35;;;;;;;18.02;16.38;;;;;;;6.82;90.36;99596.19;10457606;28;20045;-72
2021/11/21 19:23:36;;;;;;;17.70;16.13;;;;;;;6.71;92.56;99591.22;10439729;28;20043;-72
2021/11/21 19:28:38;;;;;;;18.02;16.27;;;;;;;6.49;93.91;99601.28;10456006;28;20072;-73
2021/11/21 19:33:40;;;;;;;18.85;17.30;;;;;;;6.46;95.14;99609.19;10458858;28;20120;-75
2021/11/21 19:38:50;;;;;;;19.33;17.55;;;;;;;6.46;95.85;99608.31;10465138;28;20092;-74
2021/11/21 19:43:52;;;;;;;17.52;15.93;;;;;;;6.62;95.07;99622.75;10465546;28;20124;-74
2021/11/21 19:48:53;;;;;;;18.95;17.20;;;;;;;6.54;95.75;99624.66;10464975;28;20120;-74
2021/11/21 19:53:55;;;;;;;18.13;16.40;;;;;;;6.53;96.13;99636.03;10464995;28;20528;-74
2021/11/21 19:58:58;;;;;;;17.38;15.77;;;;;;;6.62;95.98;99646.25;10464640;28;20045;-72
2021/11/21 20:04:00;;;;;;;14.45;13.00;;;;;;;6.71;95.80;99646.06;10463455;28;20052;-72
2021/11/21 20:09:03;;;;;;;14.23;13.13;;;;;;;6.64;95.58;99654.06;10463504;28;20166;-72
2021/11/21 20:14:04;;;;;;;14.35;13.20;;;;;;;6.48;96.81;99663.97;10464108;28;20128;-72
2021/11/21 20:19:07;;;;;;;18.08;16.48;;;;;;;6.41;98.54;99663.22;10462703;28;20045;-72
2021/11/21 20:24:09;;;;;;;16.83;15.32;;;;;;;6.42;99.21;99659.75;10463260;28;20049;-71
2021/11/21 20:29:11;;;;;;;15.25;14.05;;;;;;;6.48;98.42;99667.44;10445356;28;20047;-71
2021/11/21 20:39:34;;;;;;;17.15;15.55;;;;;;;6.43;100.00;99677.13;10464496;28;20380;-72
2021/11/21 20:44:36;;;;;;;20.45;18.35;;;;;;;6.38;100.00;99683.34;10459973;28;20048;-73
2021/11/21 20:49:38;;;;;;;20.05;18.13;;;;;;;6.52;100.00;99694.38;10460913;28;20087;-72
2021/11/21 20:54:40;;;;;;;19.85;17.60;;;;;;;6.41;100.00;99697.19;10461975;28;20435;-71
2021/11/21 20:59:42;;;;;;;19.45;17.50;;;;;;;6.60;99.95;99713.34;10461340;28;20037;-72
2021/11/21 21:04:44;;;;;;;17.10;15.35;;;;;;;6.72;98.70;99709.59;10427289;28;20106;-72
2021/11/21 21:09:45;;;;;;;14.95;13.57;;;;;;;6.81;97.48;99717.25;10460963;28;20113;-72
2021/11/21 21:14:48;;;;;;;15.80;14.13;;;;;;;6.65;96.98;99714.09;10462111;28;20041;-71
2021/11/21 21:19:50;;;;;;;13.85;12.63;;;;;;;6.54;97.88;99719.53;10442906;28;20049;-72
2021/11/21 21:24:53;;;;;;;13.13;11.88;;;;;;;6.46;98.22;99729.31;10460712;28;20037;-72
2021/11/21 21:29:58;;;;;;;15.85;11.98;;;;;;;6.84;96.29;99732.84;10461408;28;20040;-72
2021/11/21 21:35:00;;;;;;;16.33;13.38;;;;;;;6.81;95.45;99732.91;10460400;28;20041;-72
2021/11/21 21:40:04;;;;;;;14.40;13.02;;;;;;;6.67;96.66;99727.97;10460198;28;20055;-72
2021/11/21 21:45:07;;;;;;;17.23;15.02;;;;;;;6.63;96.83;99725.47;10459891;28;20044;-71
2021/11/21 21:50:31;;;;;;;18.30;16.35;;;;;;;6.73;96.74;99727.00;10460575;28;20045;-73
2021/11/21 21:55:34;;;;;;;25.63;19.20;;;;;;;6.74;96.33;99728.72;10458676;28;20489;-72
2021/11/21 22:00:36;;;;;;;20.65;16.92;;;;;;;6.66;96.85;99739.34;10458236;28;20127;-72
2021/11/21 22:05:38;;;;;;;25.90;17.65;;;;;;;6.48;97.96;99731.88;10441393;28;20144;-73
2021/11/21 22:10:43;;;;;;;18.25;16.35;;;;;;;6.46;98.59;99736.25;10459171;28;20136;-72
2021/11/21 22:15:45;;;;;;;18.95;15.80;;;;;;;6.50;99.01;99733.53;10459149;28;20055;-72
2021/11/21 22:20:48;;;;;;;23.02;17.23;;;;;;;6.43;99.71;99745.03;10459032;28;20045;-72
2021/11/21 22:25:50;;;;;;;23.95;15.55;;;;;;;6.39;100.00;99751.19;10459454;28;20044;-71
2021/11/21 22:30:52;;;;;;;16.50;14.80;;;;;;;6.44;100.00;99770.22;10457434;28;20124;-72
2021/11/21 22:35:56;;;;;;;18.63;14.68;;;;;;;6.57;100.00;99770.84;10458707;28;20439;-72
2021/11/21 22:40:57;;;;;;;17.13;13.85;;;;;;;6.65;99.31;99771.56;10459757;28;20115;-72
2021/11/21 22:46:00;;;;;;;24.40;13.98;;;;;;;6.66;98.80;99778.50;10459553;28;20127;-72
2021/11/21 22:51:05;;;;;;;15.70;13.00;;;;;;;6.51;98.95;99781.44;10458489;28;20044;-72
2021/11/21 22:56:07;;;;;;;24.17;14.23;;;;;;;6.55;99.55;99793.50;10441118;28;20087;-72
2021/11/21 23:01:09;;;;;;;17.50;14.13;;;;;;;6.52;99.93;99794.44;10458942;28;20041;-71
2021/11/21 23:06:11;;;;;;;21.88;14.15;;;;;;;6.51;99.76;99797.09;10458677;28;20044;-71
2021/11/21 23:11:13;;;;;;;16.70;14.75;;;;;;;6.55;99.11;99802.22;10456780;28;20041;-71
2021/11/21 23:16:16;;;;;;;15.77;14.30;;;;;;;6.57;99.39;99812.63;10458486;28;20069;-72
2021/11/21 23:21:18;;;;;;;16.65;15.00;;;;;;;6.45;100.00;99808.50;10458899;28;20140;-72
2021/11/21 23:26:20;;;;;;;18.35;14.48;;;;;;;6.37;100.00;99818.22;10458153;28;20040;-72